createdAt,value
2022-11-05T00:05:33.415Z,99519.57
2022-11-05T00:11:56.156Z,99519.23
2022-11-05T00:18:20.715Z,99532.52
2022-11-05T00:24:43.808Z,99530.73
2022-11-05T00:31:08.455Z,99524.65
2022-11-05T00:37:32.760Z,99524.81
2022-11-05T00:43:55.816Z,99520.63
2022-11-05T00:50:20.189Z,99514.38
2022-11-05T00:56:44.516Z,99510.55
2022-11-05T01:03:09.282Z,99502.92
2022-11-05T01:09:33.850Z,99502.02
2022-11-05T01:15:58.199Z,99506.73
2022-11-05T01:22:22.502Z,99505.55
2022-11-05T01:28:46.883Z,99512.22
2022-11-05T01:35:11.200Z,99517.33
2022-11-05T01:41:35.749Z,99524.61
2022-11-05T01:48:12.040Z,99536.36
2022-11-05T01:54:51.549Z,99542.41
2022-11-05T02:01:16.021Z,99536.42
2022-11-05T02:07:41.054Z,99546.77
2022-11-05T02:14:00.378Z,99542.63
2022-11-05T02:20:52.146Z,99539.00
2022-11-05T02:27:44.243Z,99537.20
2022-11-05T02:34:14.554Z,99534.66
2022-11-05T02:40:50.803Z,99544.84
2022-11-05T02:47:18.002Z,99549.91
2022-11-05T02:54:00.838Z,99556.84
2022-11-05T03:00:25.184Z,99561.39
2022-11-05T03:07:06.391Z,99565.35
2022-11-05T03:13:30.855Z,99567.60
2022-11-05T03:19:58.358Z,99576.35
2022-11-05T03:26:22.748Z,99571.17
2022-11-05T03:32:47.043Z,99577.69
2022-11-05T03:39:14.212Z,99578.86
2022-11-05T03:45:38.615Z,99581.75
2022-11-05T03:52:21.091Z,99579.86
2022-11-05T03:58:45.401Z,99588.77
2022-11-05T04:05:09.632Z,99587.12
2022-11-05T04:11:32.283Z,99609.83
2022-11-05T04:17:56.582Z,99635.07
2022-11-05T04:24:29.981Z,99642.45
2022-11-05T04:30:54.421Z,99647.22
2022-11-05T04:37:18.703Z,99654.66
2022-11-05T04:43:43.021Z,99644.52
2022-11-05T04:50:07.302Z,99640.33
2022-11-05T04:56:31.648Z,99653.20
2022-11-05T05:02:56.154Z,99672.12
2022-11-05T05:09:20.496Z,99674.63
2022-11-05T05:15:45.018Z,99678.02
2022-11-05T05:22:09.418Z,99680.14
2022-11-05T05:28:33.806Z,99687.20
2022-11-05T05:34:58.130Z,99690.84
2022-11-05T05:41:21.402Z,99701.27
2022-11-05T05:47:45.825Z,99710.05
2022-11-05T05:54:10.249Z,99699.75
2022-11-05T06:00:34.499Z,99704.41
2022-11-05T06:07:01.817Z,99706.58
2022-11-05T06:13:26.089Z,99707.40
2022-11-05T06:19:50.352Z,99715.04
2022-11-05T06:26:14.655Z,99733.13
2022-11-05T06:32:39.079Z,99739.08
2022-11-05T06:39:03.326Z,99744.52
2022-11-05T06:45:27.691Z,99744.58
2022-11-05T06:51:52.037Z,99744.11
2022-11-05T06:58:16.404Z,99752.56
2022-11-05T07:04:40.734Z,99753.77
2022-11-05T07:11:05.160Z,99758.23
2022-11-05T07:17:29.402Z,99764.58
2022-11-05T07:23:53.753Z,99778.27
2022-11-05T07:30:16.724Z,99788.69
2022-11-05T07:36:36.401Z,99786.61
2022-11-05T07:43:00.749Z,99791.82
2022-11-05T07:49:25.052Z,99799.41
2022-11-05T07:55:49.429Z,99796.54
2022-11-05T08:02:13.988Z,99799.59
2022-11-05T08:08:38.496Z,99806.52
2022-11-05T08:15:02.815Z,99814.36
2022-11-05T08:21:27.151Z,99815.21
2022-11-05T08:27:51.568Z,99828.92
2022-11-05T08:34:15.876Z,99832.19
2022-11-05T08:40:40.111Z,99835.05
2022-11-05T08:47:04.463Z,99850.02
2022-11-05T08:53:28.776Z,99845.87
2022-11-05T08:59:52.490Z,99854.91
2022-11-05T09:06:16.798Z,99859.95
2022-11-05T09:12:41.237Z,99863.41
2022-11-05T09:19:05.616Z,99862.36
2022-11-05T09:25:29.877Z,99863.17
2022-11-05T09:31:54.248Z,99863.75
2022-11-05T09:38:18.536Z,99872.52
2022-11-05T09:44:55.067Z,99885.40
2022-11-05T09:51:31.589Z,99890.61
2022-11-05T09:57:55.968Z,99897.90
2022-11-05T10:04:20.283Z,99909.54
2022-11-05T10:10:47.553Z,99912.90
2022-11-05T10:17:32.736Z,99925.31
2022-11-05T10:24:02.177Z,99938.09
2022-11-05T10:30:26.503Z,99936.67
2022-11-05T10:36:51.033Z,99941.81
2022-11-05T10:43:26.700Z,99952.30
2022-11-05T10:49:51.105Z,99962.70
2022-11-05T10:56:18.370Z,99963.99
2022-11-05T11:02:42.806Z,99973.34
2022-11-05T11:09:10.081Z,99987.26
2022-11-05T11:15:32.829Z,99983.91
2022-11-05T11:22:00.199Z,99977.59
2022-11-05T11:28:27.311Z,99977.67
2022-11-05T11:34:57.159Z,99981.84
2022-11-05T11:41:24.361Z,99977.61
2022-11-05T11:47:51.600Z,99980.35
2022-11-05T11:54:23.895Z,99982.00
2022-11-05T12:00:51.615Z,99987.88
2022-11-05T12:07:34.077Z,99996.84
2022-11-05T12:14:01.006Z,100001.98
2022-11-05T12:20:45.415Z,100008.83
2022-11-05T12:27:32.762Z,100018.63
2022-11-05T12:34:27.504Z,100015.04
2022-11-05T12:40:54.640Z,100013.10
2022-11-05T12:47:19.275Z,100010.50
2022-11-05T12:54:03.994Z,100013.84
2022-11-05T13:00:27.279Z,100019.38
2022-11-05T13:06:54.548Z,100026.17
2022-11-05T13:13:19.170Z,100027.04
2022-11-05T13:19:52.157Z,100027.42
2022-11-05T13:26:19.697Z,100031.35
2022-11-05T13:32:42.556Z,100040.80
2022-11-05T13:39:21.995Z,100045.42
2022-11-05T13:46:06.046Z,100048.92
2022-11-05T13:52:36.502Z,100050.29
2022-11-05T13:59:05.743Z,100069.35
2022-11-05T14:05:30.141Z,100083.73
2022-11-05T14:12:00.290Z,100093.31
2022-11-05T14:18:36.688Z,100095.71
2022-11-05T14:25:03.772Z,100106.16
2022-11-05T14:32:07.380Z,100117.95
2022-11-05T14:38:34.068Z,100120.15
2022-11-05T14:44:59.084Z,100120.93
2022-11-05T14:51:35.479Z,100130.16
2022-11-05T14:57:57.913Z,100132.05
2022-11-05T15:04:37.359Z,100142.84
2022-11-05T15:11:01.679Z,100148.58
2022-11-05T15:17:26.107Z,100151.50
2022-11-05T15:23:50.411Z,100151.58
2022-11-05T15:30:17.819Z,100157.54
2022-11-05T15:36:40.367Z,100163.48
2022-11-05T15:43:04.694Z,100167.11
2022-11-05T15:49:28.985Z,100172.80
2022-11-05T15:56:11.567Z,100172.80
2022-11-05T16:02:36.088Z,100179.95
2022-11-05T16:09:03.454Z,100190.59
2022-11-05T16:15:36.567Z,100189.77
2022-11-05T16:22:00.852Z,100197.45
2022-11-05T16:28:25.106Z,100198.64
2022-11-05T16:34:49.590Z,100205.20
2022-11-05T16:41:14.045Z,100210.95
2022-11-05T16:47:38.398Z,100219.92
2022-11-05T16:54:02.723Z,100234.33
2022-11-05T17:00:27.110Z,100242.20
2022-11-05T17:06:51.433Z,100245.36
2022-11-05T17:13:15.760Z,100252.57
2022-11-05T17:19:40.152Z,100261.34
2022-11-05T17:26:04.640Z,100261.86
2022-11-05T17:32:29.019Z,100268.79
2022-11-05T17:38:53.402Z,100282.48
2022-11-05T17:45:17.705Z,100291.77
2022-11-05T17:51:44.984Z,100297.05
2022-11-05T17:58:09.381Z,100296.08
2022-11-05T18:04:33.824Z,100300.58
2022-11-05T18:10:58.223Z,100307.95
2022-11-05T18:17:22.681Z,100301.27
2022-11-05T18:23:47.047Z,100302.11
2022-11-05T18:30:11.292Z,100310.95
2022-11-05T18:36:35.801Z,100315.34
2022-11-05T18:43:00.102Z,100321.42
2022-11-05T18:49:24.508Z,100321.73
2022-11-05T18:55:49.022Z,100320.90
2022-11-05T19:02:13.505Z,100326.71
2022-11-05T19:08:38.088Z,100325.63
2022-11-05T19:15:03.238Z,100328.65
2022-11-05T19:21:27.800Z,100327.11
2022-11-05T19:27:52.092Z,100332.35
2022-11-05T19:34:16.315Z,100338.40
2022-11-05T19:40:40.665Z,100345.03
2022-11-05T19:47:07.805Z,100353.04
2022-11-05T19:53:32.098Z,100356.56
2022-11-05T19:59:56.635Z,100362.86
2022-11-05T20:06:21.054Z,100371.09
2022-11-05T20:12:45.470Z,100381.88
2022-11-05T20:19:09.751Z,100388.41
2022-11-05T20:25:34.078Z,100399.11
2022-11-05T20:31:58.378Z,100407.02
2022-11-05T20:38:22.758Z,100413.73
2022-11-05T20:44:47.095Z,100421.41
2022-11-05T20:51:11.447Z,100423.94
2022-11-05T20:57:35.741Z,100429.69
2022-11-05T21:04:00.166Z,100426.88
2022-11-05T21:10:24.488Z,100431.81
2022-11-05T21:16:48.761Z,100433.88
2022-11-05T21:23:13.084Z,100436.11
2022-11-05T21:29:37.374Z,100439.52
2022-11-05T21:36:01.720Z,100439.30
2022-11-05T21:42:25.975Z,100432.98
2022-11-05T21:48:50.305Z,100433.40
2022-11-05T21:55:13.218Z,100440.43
2022-11-05T22:01:37.767Z,100441.63
2022-11-05T22:07:54.656Z,100451.48
2022-11-05T22:14:19.066Z,100457.45
2022-11-05T22:20:43.363Z,100459.71
2022-11-05T22:27:07.686Z,100461.79
2022-11-05T22:33:32.101Z,100464.82
2022-11-05T22:39:56.491Z,100462.09
2022-11-05T22:46:20.858Z,100466.48
2022-11-05T22:52:38.199Z,100462.52
2022-11-05T22:59:02.487Z,100469.67
2022-11-05T23:05:31.949Z,100474.06
2022-11-05T23:11:56.218Z,100470.73
2022-11-05T23:18:19.164Z,100468.10
2022-11-05T23:24:43.321Z,100472.00
2022-11-05T23:31:06.120Z,100467.19
2022-11-05T23:37:29.136Z,100473.34
2022-11-05T23:43:51.731Z,100479.66
2022-11-05T23:50:16.268Z,100485.36
2022-11-05T23:56:43.005Z,100483.27
